Time;durP1;ratioP1;P1;durP2;ratioP2;P2;SDS_P1;SDS_P2;PMS_P1;PMS_P2;Temp;Humidity;BMP_temperature;BMP_pressure;BME280_temperature;BME280_humidity;BME280_pressure;Samples;Min_cycle;Max_cycle;Signal;HPM_P1;HPM_P2
2022/08/14 00:02:16;;;;;;;2.27;2.13;;;;;;;19.79;56.52;101050.84;5075763;28;20074;-87
2022/08/14 00:04:41;;;;;;;2.30;2.10;;;;;;;19.74;56.52;101045.81;5075530;28;20473;-87
2022/08/14 00:07:09;;;;;;;2.27;2.10;;;;;;;19.69;56.51;101041.72;5074632;28;20020;-87
2022/08/14 00:09:34;;;;;;;2.53;2.33;;;;;;;19.64;56.64;101047.22;5075695;28;20275;-87
2022/08/14 00:12:00;;;;;;;2.50;2.30;;;;;;;19.59;56.76;101044.78;5075261;28;20475;-87
2022/08/14 00:14:27;;;;;;;2.20;2.10;;;;;;;19.56;56.86;101044.09;5074599;28;20149;-87
2022/08/14 00:16:53;;;;;;;2.22;2.13;;;;;;;19.52;56.89;101045.19;5075031;28;20357;-86
2022/08/14 00:19:18;;;;;;;2.15;2.05;;;;;;;19.50;57.01;101039.16;5074876;28;20024;-86
2022/08/14 00:21:43;;;;;;;2.57;2.20;;;;;;;19.46;56.84;101038.44;5074687;28;20407;-87
2022/08/14 00:24:09;;;;;;;2.57;2.37;;;;;;;19.41;57.51;101025.53;5074983;28;20032;-87
2022/08/14 00:26:34;;;;;;;2.20;2.10;;;;;;;19.40;57.07;101030.84;5074499;28;20107;-87
2022/08/14 00:28:59;;;;;;;2.50;2.30;;;;;;;19.37;57.43;101036.25;5074994;28;20025;-87
2022/08/14 00:31:26;;;;;;;2.40;2.20;;;;;;;19.36;57.25;101021.41;5075209;28;20025;-87
2022/08/14 00:33:52;;;;;;;2.13;2.03;;;;;;;19.34;58.28;101021.47;5074354;28;20032;-87
2022/08/14 00:36:17;;;;;;;2.00;1.90;;;;;;;19.30;57.62;101019.94;5074675;28;20056;-87
2022/08/14 00:38:43;;;;;;;2.10;2.00;;;;;;;19.27;57.18;101012.19;5074995;28;20078;-87
2022/08/14 00:41:08;;;;;;;2.20;2.10;;;;;;;19.26;57.13;101010.47;5074048;28;20032;-88
2022/08/14 00:43:35;;;;;;;2.23;2.07;;;;;;;19.24;57.37;101012.34;5074759;28;20025;-87
2022/08/14 00:46:03;;;;;;;2.20;2.10;;;;;;;19.23;57.48;101000.09;5074492;28;20457;-88
2022/08/14 00:48:29;;;;;;;2.50;2.30;;;;;;;19.20;57.34;100998.47;5074187;28;20029;-87
2022/08/14 00:50:54;;;;;;;2.50;2.30;;;;;;;19.19;57.21;100999.41;5074598;28;20028;-87
2022/08/14 00:53:22;;;;;;;2.93;2.10;;;;;;;19.17;57.40;101003.06;5074642;28;20074;-88
2022/08/14 00:55:48;;;;;;;2.10;2.00;;;;;;;19.14;57.37;101001.41;5074147;28;20036;-87
2022/08/14 00:58:32;;;;;;;2.42;2.22;;;;;;;19.10;57.50;100998.06;5074863;28;20035;-87
2022/08/14 01:01:07;;;;;;;2.40;2.20;;;;;;;19.06;57.20;100991.28;5074563;28;20020;-87
2022/08/14 01:03:36;;;;;;;2.20;2.10;;;;;;;19.03;58.46;100996.69;5074179;28;20418;-88
2022/08/14 01:06:03;;;;;;;2.17;2.08;;;;;;;18.97;59.65;100982.03;5074368;28;20091;-88
2022/08/14 01:08:29;;;;;;;2.90;2.55;;;;;;;18.97;59.03;100979.41;5074677;28;20035;-89
2022/08/14 01:10:57;;;;;;;2.45;2.22;;;;;;;19.01;57.88;100979.28;5074395;28;20028;-89
2022/08/14 01:13:25;;;;;;;2.00;1.90;;;;;;;19.00;58.32;100972.31;5074549;28;20020;-88
2022/08/14 01:15:54;;;;;;;2.50;2.30;;;;;;;18.98;58.56;100975.88;5073728;28;20469;-87
2022/08/14 01:21:08;;;;;;;2.28;2.10;;;;;;;18.98;57.09;100967.09;5073932;28;20393;-88
2022/08/14 01:23:36;;;;;;;2.50;2.30;;;;;;;18.99;56.46;100968.81;5073710;28;20025;-88
2022/08/14 01:26:02;;;;;;;2.50;2.30;;;;;;;18.97;57.08;100968.91;5073809;28;20081;-88
2022/08/14 01:28:30;;;;;;;2.60;2.40;;;;;;;18.99;57.25;100966.19;5074168;28;20472;-88
2022/08/14 01:30:56;;;;;;;2.80;2.60;;;;;;;18.96;58.20;100961.94;5073470;28;20021;-88
2022/08/14 01:33:28;;;;;;;2.60;2.40;;;;;;;18.94;57.35;100958.50;5074546;28;20024;-87
2022/08/14 01:35:57;;;;;;;2.80;2.60;;;;;;;18.93;56.80;100964.69;5073506;28;20094;-88
2022/08/14 01:38:25;;;;;;;2.70;2.50;;;;;;;18.93;57.01;100958.56;5073302;28;20029;-88
2022/08/14 01:40:51;;;;;;;2.35;2.20;;;;;;;18.92;57.13;100964.75;5074059;28;20028;-87
2022/08/14 01:43:16;;;;;;;2.60;2.40;;;;;;;18.88;58.02;100960.56;5073806;28;20021;-87
2022/08/14 01:45:44;;;;;;;2.20;2.10;;;;;;;18.87;57.78;100966.75;5072765;28;20086;-88
2022/08/14 01:48:09;;;;;;;3.05;2.30;;;;;;;18.83;57.00;100963.41;5073309;28;20101;-87
2022/08/14 01:50:35;;;;;;;2.53;2.33;;;;;;;18.81;57.52;100966.13;5073729;28;20468;-87
2022/08/14 01:53:01;;;;;;;2.83;2.40;;;;;;;18.75;57.39;100965.56;5072810;28;20281;-87
2022/08/14 01:55:30;;;;;;;2.33;2.20;;;;;;;18.66;57.61;100969.47;5073288;28;20048;-87
2022/08/14 01:57:56;;;;;;;3.05;2.75;;;;;;;18.60;57.48;100967.16;5072551;28;20043;-87
2022/08/14 02:00:22;;;;;;;3.13;2.58;;;;;;;18.56;57.55;100962.94;5073572;28;20081;-87
2022/08/14 02:02:48;;;;;;;2.77;2.53;;;;;;;18.50;57.86;100961.47;5073667;28;20485;-87
2022/08/14 02:05:13;;;;;;;3.10;2.80;;;;;;;18.45;58.07;100964.31;5073065;28;20027;-87
2022/08/14 02:07:40;;;;;;;3.00;2.70;;;;;;;18.42;58.30;100951.31;5073504;28;20017;-88
2022/08/14 02:10:06;;;;;;;2.97;2.75;;;;;;;18.35;58.26;100955.16;5073725;28;20415;-87
2022/08/14 02:12:31;;;;;;;3.38;3.00;;;;;;;18.28;58.32;100949.31;5073052;28;20098;-87
2022/08/14 02:14:58;;;;;;;3.17;2.87;;;;;;;18.26;58.51;100952.94;5072990;28;20461;-87
2022/08/14 02:17:24;;;;;;;3.65;3.08;;;;;;;18.20;58.48;100957.53;5073333;28;20102;-87
2022/08/14 02:19:49;;;;;;;3.30;3.00;;;;;;;18.18;58.51;100955.91;5072373;28;20056;-87
2022/08/14 02:22:17;;;;;;;3.20;2.90;;;;;;;18.12;58.66;100953.59;5073565;28;20031;-88
2022/08/14 02:24:43;;;;;;;3.47;3.17;;;;;;;18.08;59.15;100949.38;5073276;28;20103;-87
2022/08/14 02:27:12;;;;;;;4.15;2.92;;;;;;;18.02;58.94;100953.13;5072181;28;20471;-87
2022/08/14 02:29:37;;;;;;;3.78;3.00;;;;;;;17.96;59.28;100946.34;5073009;28;20479;-88
2022/08/14 02:32:03;;;;;;;3.00;2.80;;;;;;;17.90;59.21;100960.59;5072958;28;20017;-88
2022/08/14 02:34:35;;;;;;;3.70;2.90;;;;;;;17.86;59.64;100958.19;5072416;28;20090;-88
2022/08/14 02:37:08;;;;;;;3.03;2.72;;;;;;;17.81;59.44;100953.16;5072848;28;20047;-88
2022/08/14 02:39:44;;;;;;;3.58;3.10;;;;;;;17.76;59.77;100949.84;5073016;28;20032;-88
2022/08/14 02:42:11;;;;;;;;;;;;;;;17.73;60.03;100950.84;5072573;28;20068;-88
2022/08/14 02:44:39;;;;;;;3.50;3.20;;;;;;;17.70;60.11;100945.72;5073692;28;19934;-87
2022/08/14 02:47:05;;;;;;;3.38;3.08;;;;;;;17.68;59.97;100951.97;5072841;28;20021;-87
2022/08/14 02:49:30;;;;;;;3.27;2.97;;;;;;;17.63;59.86;100952.16;5072821;28;20094;-87
2022/08/14 02:51:56;;;;;;;3.40;3.10;;;;;;;17.60;60.19;100945.28;5072842;28;20025;-88
2022/08/14 02:54:23;;;;;;;3.20;2.90;;;;;;;17.57;60.31;100949.78;5072232;28;20059;-88
2022/08/14 02:56:50;;;;;;;3.25;2.95;;;;;;;17.54;60.19;100942.06;5073889;28;20411;-87
2022/08/14 02:59:16;;;;;;;3.40;3.10;;;;;;;17.51;60.18;100940.41;5077208;28;20037;-87
2022/08/14 03:01:42;;;;;;;3.40;3.10;;;;;;;17.51;60.28;100931.69;5076120;28;20461;-88
2022/08/14 03:04:09;;;;;;;3.83;3.28;;;;;;;17.48;60.55;100934.44;5076787;28;20032;-88
2022/08/14 03:06:34;;;;;;;3.78;3.38;;;;;;;17.41;60.56;100937.34;5077146;28;20108;-87
2022/08/14 03:09:00;;;;;;;3.20;2.90;;;;;;;17.38;61.36;100926.13;5076289;28;20104;-87
2022/08/14 03:11:25;;;;;;;3.50;3.20;;;;;;;17.34;61.00;100924.56;5076883;28;20115;-88
2022/08/14 03:13:51;;;;;;;3.37;2.93;;;;;;;17.30;61.31;100921.22;5076569;28;20025;-88
2022/08/14 03:16:19;;;;;;;3.28;2.83;;;;;;;17.28;60.95;100923.03;5076140;28;20024;-88
2022/08/14 03:18:47;;;;;;;3.70;2.97;;;;;;;17.26;61.34;100922.25;5076928;28;20078;-87
2022/08/14 03:21:17;;;;;;;4.40;3.00;;;;;;;17.24;61.06;100921.44;5076366;28;20020;-88
2022/08/14 03:23:46;;;;;;;3.78;3.15;;;;;;;17.19;61.36;100912.94;5076032;28;20464;-87
2022/08/14 03:26:17;;;;;;;3.40;3.10;;;;;;;17.18;61.38;100925.19;5076383;28;20375;-87
2022/08/14 03:28:47;;;;;;;3.30;3.00;;;;;;;17.17;61.40;100922.63;5076451;28;20086;-87
2022/08/14 03:31:13;;;;;;;3.28;2.97;;;;;;;17.15;61.62;100917.47;5075517;28;20020;-87
2022/08/14 03:33:39;;;;;;;4.07;2.97;;;;;;;17.13;61.48;100917.50;5076253;28;20106;-88
2022/08/14 03:36:12;;;;;;;3.80;3.20;;;;;;;17.09;61.65;100915.97;5075814;28;20062;-87
2022/08/14 03:38:43;;;;;;;3.40;3.10;;;;;;;17.05;61.95;100911.75;5075712;28;20100;-87
2022/08/14 03:41:16;;;;;;;3.20;2.90;;;;;;;17.01;61.91;100912.78;5075850;28;20307;-88
2022/08/14 03:43:43;;;;;;;4.10;3.20;;;;;;;16.97;61.94;100909.44;5075511;28;20025;-87
2022/08/14 03:46:10;;;;;;;3.30;3.00;;;;;;;16.94;62.27;100908.72;5075828;28;20032;-88
2022/08/14 03:48:36;;;;;;;3.90;3.38;;;;;;;16.90;62.07;100907.09;5076202;28;20534;-87
2022/08/14 03:51:01;;;;;;;3.38;3.08;;;;;;;16.87;62.19;100905.44;5075502;28;20035;-87
2022/08/14 03:53:27;;;;;;;5.10;3.37;;;;;;;16.85;62.37;100906.44;5076127;28;20404;-88
2022/08/14 03:55:57;;;;;;;4.07;3.40;;;;;;;16.80;62.91;100906.63;5075643;28;20556;-88
2022/08/14 03:58:22;;;;;;;3.63;3.00;;;;;;;16.76;62.55;100905.91;5075547;28;20081;-88
2022/08/14 04:00:48;;;;;;;3.33;3.03;;;;;;;16.75;62.76;100901.56;5076085;28;20016;-88
2022/08/14 04:03:14;;;;;;;3.43;3.10;;;;;;;16.73;62.58;100898.16;5075904;28;20461;-87
2022/08/14 04:05:41;;;;;;;3.25;2.95;;;;;;;16.70;62.65;100911.38;5075375;28;20111;-87
2022/08/14 04:08:07;;;;;;;5.13;3.22;;;;;;;16.67;63.01;100917.59;5074819;28;20069;-88
2022/08/14 04:10:33;;;;;;;3.92;3.53;;;;;;;16.64;62.92;100911.63;5075473;28;20051;-87
2022/08/14 04:13:03;;;;;;;3.77;3.30;;;;;;;16.61;63.03;100909.13;5074490;28;20048;-87
2022/08/14 04:15:28;;;;;;;4.40;3.60;;;;;;;16.58;63.05;100904.88;5075234;28;20032;-87
2022/08/14 04:17:54;;;;;;;5.03;3.67;;;;;;;16.57;63.14;100910.16;5074812;28;20081;-87
2022/08/14 04:20:20;;;;;;;4.07;3.30;;;;;;;16.54;63.58;100910.28;5074608;28;20082;-88
2022/08/14 04:22:47;;;;;;;4.50;3.63;;;;;;;16.50;63.43;100905.16;5075393;28;20033;-88
2022/08/14 04:25:13;;;;;;;3.88;3.35;;;;;;;16.47;63.28;100899.19;5075205;28;20396;-87
2022/08/14 04:27:38;;;;;;;3.97;3.30;;;;;;;16.45;63.59;100901.84;5074656;28;20024;-87
2022/08/14 04:30:05;;;;;;;4.00;3.23;;;;;;;16.46;63.61;100903.56;5074989;28;20028;-87
2022/08/14 04:32:32;;;;;;;4.82;3.47;;;;;;;16.46;63.51;100898.31;5074748;28;20039;-86
2022/08/14 04:34:58;;;;;;;4.50;3.70;;;;;;;16.46;63.92;100900.09;5074686;28;20044;-87
2022/08/14 04:45:41;;;;;;;3.40;3.10;;;;;;;16.31;64.22;100875.38;5075046;28;20034;-87
2022/08/14 04:48:14;;;;;;;4.45;3.50;;;;;;;16.30;65.05;100871.03;5073940;28;20020;-87
2022/08/14 04:50:45;;;;;;;3.17;2.88;;;;;;;16.30;64.99;100874.50;5074657;28;20028;-88
2022/08/14 04:53:13;;;;;;;3.42;2.80;;;;;;;16.31;64.62;100878.00;5074862;28;20028;-87
2022/08/14 04:55:47;;;;;;;3.08;2.78;;;;;;;16.36;64.34;100868.16;5074278;28;20115;-87
2022/08/14 04:58:19;;;;;;;2.80;2.60;;;;;;;16.40;64.58;100868.91;5074249;28;20021;-87
2022/08/14 05:00:49;;;;;;;2.92;2.65;;;;;;;16.44;64.48;100873.13;5074496;28;20051;-87
2022/08/14 05:03:19;;;;;;;3.05;2.72;;;;;;;16.48;64.07;100872.09;5074490;28;20029;-87
2022/08/14 05:05:53;;;;;;;3.20;2.90;;;;;;;16.49;64.16;100864.16;5074679;28;20024;-87
2022/08/14 05:08:19;;;;;;;2.80;2.60;;;;;;;16.50;64.23;100863.25;5073361;28;20473;-87
2022/08/14 05:10:52;;;;;;;3.20;2.80;;;;;;;16.54;64.22;100857.91;5074391;28;20077;-87
2022/08/14 05:13:24;;;;;;;2.65;2.45;;;;;;;16.57;64.55;100863.84;5074175;28;20032;-87
2022/08/14 05:15:51;;;;;;;3.72;2.90;;;;;;;16.61;64.69;100867.19;5073725;28;20036;-87
2022/08/14 05:18:23;;;;;;;2.90;2.70;;;;;;;16.64;64.62;100862.69;5074676;28;20021;-88
2022/08/14 05:20:50;;;;;;;3.40;3.00;;;;;;;16.69;65.30;100865.13;5073692;28;20039;-88
2022/08/14 05:23:21;;;;;;;3.20;2.90;;;;;;;16.73;64.96;100864.09;5073719;28;20028;-88
2022/08/14 05:25:50;;;;;;;2.65;2.45;;;;;;;16.79;64.41;100865.59;5074004;28;20020;-88
2022/08/14 05:28:20;;;;;;;2.60;2.40;;;;;;;16.83;65.15;100862.78;5074266;28;20029;-88
2022/08/14 05:30:48;;;;;;;2.70;2.50;;;;;;;16.86;64.17;100860.97;5073622;28;20048;-88
2022/08/14 05:33:17;;;;;;;2.50;2.30;;;;;;;16.89;65.75;100864.31;5073798;28;20080;-87
2022/08/14 05:35:43;;;;;;;2.50;2.30;;;;;;;16.94;64.50;100858.91;5073704;28;20505;-87
2022/08/14 05:38:12;;;;;;;2.80;2.40;;;;;;;16.97;65.47;100859.63;5073276;28;20086;-87
2022/08/14 05:40:39;;;;;;;2.90;2.60;;;;;;;17.04;65.72;100854.97;5073467;28;20032;-87
2022/08/14 05:43:04;;;;;;;2.47;2.28;;;;;;;17.11;66.10;100864.28;5073300;28;20017;-86
2022/08/14 05:45:29;;;;;;;2.60;2.20;;;;;;;17.14;66.25;100864.16;5073898;28;20096;-88
2022/08/14 05:47:55;;;;;;;3.43;3.10;;;;;;;17.20;68.19;100865.66;5073359;28;20036;-87
2022/08/14 05:50:20;;;;;;;3.73;3.20;;;;;;;17.26;65.67;100861.91;5073315;28;20032;-85
2022/08/14 05:52:48;;;;;;;4.80;3.03;;;;;;;17.32;65.57;100859.06;5073569;28;20039;-85
2022/08/14 05:55:13;;;;;;;3.17;2.88;;;;;;;17.39;67.47;100860.47;5072776;28;20032;-88
2022/08/14 05:57:47;;;;;;;5.63;4.40;;;;;;;17.48;67.59;100864.47;5073343;28;20024;-88
2022/08/14 06:00:14;;;;;;;5.25;3.92;;;;;;;17.57;67.26;100865.81;5073261;28;20384;-88
2022/08/14 06:02:39;;;;;;;;;;;;;;;17.64;65.85;100862.03;5074227;28;20016;-88
2022/08/14 06:05:05;;;;;;;4.33;3.67;;;;;;;17.69;64.71;100860.03;5073424;28;19986;-87
2022/08/14 06:07:30;;;;;;;3.67;3.27;;;;;;;17.77;65.53;100856.22;5073492;28;20380;-82
2022/08/14 06:09:55;;;;;;;4.37;3.53;;;;;;;17.82;64.63;100864.72;5072036;28;20376;-83
2022/08/14 06:12:20;;;;;;;3.37;2.87;;;;;;;17.90;65.54;100857.38;5072325;28;20039;-83
2022/08/14 06:14:46;;;;;;;3.47;3.00;;;;;;;17.97;66.11;100855.31;5072852;28;20060;-83
2022/08/14 06:17:11;;;;;;;3.03;2.73;;;;;;;18.04;64.88;100857.59;5072935;28;20040;-83
2022/08/14 06:19:36;;;;;;;3.40;3.10;;;;;;;18.12;65.48;100859.03;5072144;28;20384;-84
2022/08/14 06:22:02;;;;;;;4.27;3.37;;;;;;;18.23;66.40;100856.75;5072647;28;20012;-83
2022/08/14 06:24:28;;;;;;;3.47;3.10;;;;;;;18.31;65.67;100849.34;5072839;28;20485;-83
2022/08/14 06:26:53;;;;;;;4.07;3.45;;;;;;;18.40;66.23;100852.47;5072097;28;20528;-83
2022/08/14 06:29:18;;;;;;;3.80;3.40;;;;;;;18.49;66.49;100850.25;5072595;28;20373;-83
2022/08/14 06:31:43;;;;;;;3.97;3.20;;;;;;;18.60;65.65;100848.88;5072705;28;20199;-83
2022/08/14 06:34:09;;;;;;;3.37;3.00;;;;;;;18.69;64.96;100840.53;5071772;28;20024;-83
2022/08/14 06:36:36;;;;;;;6.87;5.03;;;;;;;18.79;66.14;100841.78;5072073;28;20127;-82
2022/08/14 06:39:02;;;;;;;4.70;3.88;;;;;;;18.93;65.68;100840.22;5072142;28;20033;-86
2022/08/14 06:41:27;;;;;;;7.15;4.70;;;;;;;19.04;66.68;100839.69;5072091;28;20033;-89
2022/08/14 06:43:53;;;;;;;5.27;4.10;;;;;;;19.16;65.28;100840.88;5072498;28;20021;-83
2022/08/14 06:46:18;;;;;;;4.40;3.47;;;;;;;19.26;64.14;100836.84;5071641;28;20111;-82
2022/08/14 06:48:43;;;;;;;3.50;3.10;;;;;;;19.37;65.44;100844.16;5072678;28;20028;-80
2022/08/14 06:51:09;;;;;;;4.57;3.50;;;;;;;19.48;63.73;100839.16;5072124;28;20500;-85
2022/08/14 06:53:34;;;;;;;3.80;3.40;;;;;;;19.59;64.03;100836.81;5067647;28;20031;-85
2022/08/14 06:55:59;;;;;;;3.87;3.47;;;;;;;19.96;64.92;100843.69;5057544;28;20110;-84
2022/08/14 06:58:24;;;;;;;4.73;3.73;;;;;;;21.82;64.10;100838.22;5059802;28;20033;-84
2022/08/14 07:06:18;;;;;;;4.00;3.50;;;;;;;28.19;51.52;100824.59;5040483;28;20086;-84
2022/08/14 07:08:44;;;;;;;3.40;3.10;;;;;;;29.66;48.18;100824.28;5063719;28;20036;-84
2022/08/14 07:11:10;;;;;;;3.67;3.33;;;;;;;30.75;43.02;100827.03;5062995;28;20024;-84
2022/08/14 07:13:36;;;;;;;3.30;3.00;;;;;;;31.72;43.39;100824.22;5069182;28;20025;-83
2022/08/14 07:16:02;;;;;;;4.47;3.90;;;;;;;32.19;39.77;100828.16;5067228;28;20082;-84
2022/08/14 07:18:31;;;;;;;6.13;3.97;;;;;;;32.15;37.39;100829.50;5069295;28;20107;-84
2022/08/14 07:20:59;;;;;;;4.32;3.70;;;;;;;31.67;38.37;100822.00;5053460;28;20489;-85
2022/08/14 07:23:25;;;;;;;5.13;3.90;;;;;;;30.79;40.14;100813.16;5068213;28;20032;-84
2022/08/14 07:25:52;;;;;;;4.28;3.60;;;;;;;29.78;41.56;100822.25;5058499;28;20069;-85
2022/08/14 07:28:27;;;;;;;4.93;4.10;;;;;;;28.87;42.99;100822.88;5060912;28;20044;-85
2022/08/14 07:30:56;;;;;;;5.40;4.40;;;;;;;28.10;44.27;100818.25;5056839;28;20024;-85
2022/08/14 07:33:23;;;;;;;5.63;4.45;;;;;;;27.46;45.45;100820.34;5050613;28;20021;-86
2022/08/14 07:35:49;;;;;;;6.28;4.70;;;;;;;26.94;46.55;100821.16;5055151;28;20156;-85
2022/08/14 07:38:19;;;;;;;4.63;3.90;;;;;;;26.44;46.68;100810.28;5056568;28;20294;-87
2022/08/14 07:40:46;;;;;;;4.53;4.05;;;;;;;26.13;48.91;100821.63;5064098;28;20358;-86
2022/08/14 07:43:12;;;;;;;;;;;;;;;25.87;48.08;100821.91;5064253;28;20025;-86
2022/08/14 07:45:38;;;;;;;5.90;4.40;;;;;;;25.65;49.85;100817.50;5059697;28;20023;-86
2022/08/14 07:48:05;;;;;;;6.55;4.60;;;;;;;25.53;49.69;100815.81;5071334;28;20060;-85
2022/08/14 07:50:31;;;;;;;5.18;4.35;;;;;;;25.44;49.28;100809.41;5060302;28;20512;-85
2022/08/14 07:52:58;;;;;;;6.28;4.63;;;;;;;25.35;49.20;100812.75;5074831;28;20056;-85
2022/08/14 07:55:23;;;;;;;;;;;;;;;25.31;50.18;100817.47;5063335;28;20115;-85
2022/08/14 07:57:49;;;;;;;4.73;4.07;;;;;;;25.29;50.12;100814.91;5074148;28;19952;-85
2022/08/14 08:00:17;;;;;;;5.47;4.30;;;;;;;25.32;49.51;100812.97;5058572;28;20031;-86
2022/08/14 08:02:45;;;;;;;5.07;4.18;;;;;;;25.34;49.13;100811.88;5072943;28;20016;-86
2022/08/14 08:05:12;;;;;;;5.45;4.40;;;;;;;25.34;48.66;100819.84;5062758;28;20037;-84
2022/08/14 08:07:40;;;;;;;4.95;3.95;;;;;;;25.36;50.07;100822.41;5070307;28;20032;-89
2022/08/14 08:10:30;;;;;;;4.05;3.63;;;;;;;25.44;49.55;100828.81;5057925;28;20469;-85
2022/08/14 08:13:11;;;;;;;4.18;3.50;;;;;;;25.56;49.49;100831.47;5073728;28;20084;-86
2022/08/14 08:15:40;;;;;;;3.30;3.00;;;;;;;25.66;49.62;100824.50;5059792;28;20028;-85
2022/08/14 08:18:08;;;;;;;4.13;3.60;;;;;;;25.75;47.93;100825.53;5070325;28;20099;-86
2022/08/14 08:20:39;;;;;;;4.82;3.60;;;;;;;25.79;48.85;100818.16;5061102;28;20423;-85
2022/08/14 08:23:06;;;;;;;5.28;4.35;;;;;;;25.85;46.86;100817.69;5063778;28;20036;-86
2022/08/14 08:25:36;;;;;;;4.97;4.05;;;;;;;25.92;47.80;100808.25;5068373;28;20028;-86
2022/08/14 08:28:03;;;;;;;5.68;4.10;;;;;;;26.01;48.15;100798.69;5057958;28;20095;-86
2022/08/14 08:30:31;;;;;;;4.95;4.18;;;;;;;26.08;47.20;100793.69;5073979;28;20036;-85
2022/08/14 08:33:00;;;;;;;4.20;3.75;;;;;;;26.16;46.27;100786.81;5056787;28;20025;-84
2022/08/14 08:35:30;;;;;;;5.60;4.53;;;;;;;26.27;45.08;100793.06;5055154;28;20115;-85
2022/08/14 08:38:11;;;;;;;4.50;3.80;;;;;;;26.38;47.42;100787.69;5051597;28;20481;-85
2022/08/14 08:40:42;;;;;;;4.57;3.70;;;;;;;26.52;46.63;100791.84;5056494;28;20032;-84
2022/08/14 08:43:15;;;;;;;4.07;3.67;;;;;;;26.70;46.42;100799.25;5056465;28;20053;-85
2022/08/14 08:45:40;;;;;;;3.80;3.40;;;;;;;26.82;46.18;100803.56;5054105;28;20017;-85
2022/08/14 08:48:06;;;;;;;4.80;3.90;;;;;;;26.91;45.24;100802.78;5053059;28;20017;-85
2022/08/14 08:50:35;;;;;;;3.90;3.42;;;;;;;27.04;45.61;100804.38;5057780;28;20028;-85
2022/08/14 08:53:06;;;;;;;5.43;4.25;;;;;;;27.11;41.76;100794.91;5053685;28;20017;-89
2022/08/14 08:55:43;;;;;;;4.88;4.18;;;;;;;27.18;44.88;100795.22;5054785;28;20039;-88
2022/08/14 08:58:12;;;;;;;4.10;3.70;;;;;;;27.34;45.22;100797.38;5068826;28;20147;-88
2022/08/14 09:00:39;;;;;;;4.13;3.50;;;;;;;27.47;45.06;100784.72;5073607;28;20037;-88
2022/08/14 09:03:08;;;;;;;5.32;3.80;;;;;;;27.62;41.42;100779.84;5074640;28;20020;-89
2022/08/14 09:05:36;;;;;;;7.45;4.18;;;;;;;27.65;43.68;100790.22;5074596;28;20020;-88
2022/08/14 09:08:14;;;;;;;4.38;3.90;;;;;;;27.77;44.07;100788.28;5073677;28;20107;-88
2022/08/14 09:10:39;;;;;;;5.07;3.60;;;;;;;27.96;44.16;100787.47;5070435;28;20027;-88
2022/08/14 09:13:04;;;;;;;;;;;;;;;28.11;44.04;100779.06;5074601;28;20032;-88
2022/08/14 09:15:30;;;;;;;;;;;;;;;28.23;42.81;100774.47;5073588;28;19912;-89
2022/08/14 09:17:56;;;;;;;6.00;4.80;;;;;;;28.31;41.89;100769.25;5074570;28;19923;-89
2022/08/14 09:20:22;;;;;;;5.00;4.03;;;;;;;28.40;43.51;100768.41;5074095;28;20484;-88
2022/08/14 09:22:48;;;;;;;;;;;;;;;28.56;42.80;100772.31;5073970;28;20495;-88
2022/08/14 09:25:15;;;;;;;4.82;3.97;;;;;;;28.63;42.76;100773.41;5074061;28;19923;-88
2022/08/14 09:27:40;;;;;;;5.13;4.53;;;;;;;28.70;42.59;100768.34;5074151;28;20024;-88
2022/08/14 09:30:06;;;;;;;;;;;;;;;28.77;41.15;100765.00;5073916;28;20104;-89
2022/08/14 09:32:44;;;;;;;6.95;5.13;;;;;;;28.85;40.31;100766.94;5074182;28;19940;-90
2022/08/14 09:35:23;;;;;;;6.47;5.13;;;;;;;28.86;40.21;100765.09;5074132;28;20052;-96
2022/08/14 09:38:16;;;;;;;7.10;5.07;;;;;;;28.93;41.11;100756.38;5075425;28;20048;-96
2022/08/14 09:41:01;;;;;;;8.27;5.60;;;;;;;28.97;40.26;100764.94;5074290;28;20233;-90
2022/08/14 09:43:41;;;;;;;6.40;5.38;;;;;;;28.97;40.64;100759.59;5073379;28;20380;-88
2022/08/14 09:46:07;;;;;;;6.80;5.05;;;;;;;28.97;39.75;100752.44;5073766;28;20427;-89
2022/08/14 09:48:32;;;;;;;;;;;;;;;29.03;40.86;100751.00;5074034;28;20103;-89
2022/08/14 09:50:59;;;;;;;5.93;5.07;;;;;;;29.17;40.86;100748.81;5073173;28;19915;-89
2022/08/14 09:53:43;;;;;;;5.63;4.90;;;;;;;29.38;40.88;100751.28;5073050;28;20040;-88
2022/08/14 09:56:10;;;;;;;5.40;4.55;;;;;;;29.52;41.05;100742.75;5072737;28;20106;-88
2022/08/14 09:58:40;;;;;;;8.10;5.40;;;;;;;29.53;38.65;100743.59;5073810;28;20035;-95
2022/08/14 10:01:11;;;;;;;8.02;5.50;;;;;;;29.59;38.56;100743.81;5068391;28;20097;-89
2022/08/14 10:03:47;;;;;;;7.53;5.20;;;;;;;29.68;38.49;100730.53;5043039;28;20366;-89
2022/08/14 10:06:18;;;;;;;7.10;4.95;;;;;;;29.79;39.04;100727.63;5052471;28;20036;-88
2022/08/14 10:09:02;;;;;;;6.00;4.70;;;;;;;29.96;39.24;100725.16;5052776;28;20039;-88
2022/08/14 10:11:35;;;;;;;7.38;5.32;;;;;;;30.06;38.19;100719.75;5051562;28;20107;-88
2022/08/14 10:14:17;;;;;;;7.35;5.20;;;;;;;30.03;37.06;100713.69;5052839;28;20052;-90
2022/08/14 10:16:46;;;;;;;6.57;5.00;;;;;;;30.03;38.79;100718.19;5052245;28;20035;-90
2022/08/14 10:19:17;;;;;;;7.72;5.30;;;;;;;30.14;37.19;100709.09;5052199;28;20088;-93
2022/08/14 10:21:55;;;;;;;7.85;5.15;;;;;;;30.18;37.88;100707.75;5067089;28;20028;-87
2022/08/14 10:24:25;;;;;;;7.63;5.28;;;;;;;30.14;36.95;100704.56;5073338;28;20035;-90
2022/08/14 10:26:56;;;;;;;5.53;4.60;;;;;;;30.19;36.59;100702.28;5033264;28;20033;-93
2022/08/14 10:29:39;;;;;;;6.53;4.97;;;;;;;30.22;35.05;100706.47;5033762;28;20017;-92
2022/08/14 10:32:07;;;;;;;5.80;4.90;;;;;;;30.31;36.83;100705.53;5032524;28;20025;-89
2022/08/14 10:34:36;;;;;;;4.50;4.10;;;;;;;30.54;36.85;100701.53;5033286;28;20029;-89
2022/08/14 10:37:06;;;;;;;5.95;4.47;;;;;;;30.79;37.05;100700.66;5033217;28;20048;-89
2022/08/14 10:39:31;;;;;;;5.40;4.25;;;;;;;31.02;35.89;100686.69;5032770;28;20036;-90
2022/08/14 10:42:04;;;;;;;5.50;4.32;;;;;;;31.17;35.73;100683.41;5033637;28;20021;-90
2022/08/14 10:44:44;;;;;;;4.53;4.10;;;;;;;31.32;34.85;100680.94;5034340;28;20033;-93
2022/08/14 10:47:10;;;;;;;7.30;5.00;;;;;;;31.20;35.49;100681.25;5053191;28;20472;-92
2022/08/14 10:49:37;;;;;;;6.88;5.05;;;;;;;31.22;34.58;100668.53;5057480;28;20075;-91
2022/08/14 10:52:13;;;;;;;6.25;4.85;;;;;;;31.25;33.74;100673.56;5073433;28;20464;-92
2022/08/14 10:54:40;;;;;;;6.15;4.70;;;;;;;31.38;35.65;100678.44;5060865;28;20136;-90
2022/08/14 10:57:14;;;;;;;4.65;4.10;;;;;;;31.56;35.36;100672.94;5057020;28;20037;-89
2022/08/14 11:00:10;;;;;;;6.18;4.60;;;;;;;31.70;34.12;100665.28;5052436;28;20074;-91
2022/08/14 11:02:36;;;;;;;5.50;4.60;;;;;;;31.71;33.51;100669.66;5050411;28;20037;-89
2022/08/14 11:05:06;;;;;;;5.55;4.68;;;;;;;31.83;34.01;100662.09;5053651;28;20025;-88
2022/08/14 11:07:35;;;;;;;4.88;4.20;;;;;;;32.02;32.60;100656.41;5052254;28;20108;-89
2022/08/14 11:10:10;;;;;;;4.88;4.13;;;;;;;32.14;32.58;100658.72;5052793;28;20025;-89
2022/08/14 11:12:49;;;;;;;;;;;;;;;32.20;32.83;100656.19;5053514;28;20465;-89
2022/08/14 11:15:26;;;;;;;6.22;4.75;;;;;;;32.37;32.82;100660.72;5052281;28;20279;-90
2022/08/14 11:17:52;;;;;;;4.85;4.30;;;;;;;32.46;31.18;100659.69;5054753;28;20033;-91
2022/08/14 11:20:24;;;;;;;5.15;4.25;;;;;;;32.57;33.67;100666.53;5059103;28;20440;-87
2022/08/14 11:22:53;;;;;;;5.38;4.05;;;;;;;32.79;33.43;100665.81;5058943;28;20515;-91
2022/08/14 11:25:25;;;;;;;3.97;3.67;;;;;;;32.90;30.39;100659.22;5055618;28;20024;-91
2022/08/14 11:27:52;;;;;;;3.60;3.30;;;;;;;33.01;31.39;100652.59;5048898;28;20025;-89
2022/08/14 11:30:21;;;;;;;3.55;3.22;;;;;;;33.14;30.93;100659.25;5056670;28;20461;-91
2022/08/14 11:32:49;;;;;;;3.65;3.28;;;;;;;33.23;28.46;100653.66;5056669;28;20032;-93
2022/08/14 11:35:19;;;;;;;3.65;3.35;;;;;;;33.26;30.20;100664.06;5058657;28;20552;-88
2022/08/14 11:37:58;;;;;;;4.25;3.28;;;;;;;33.28;29.04;100655.81;5056049;28;20025;-91
2022/08/14 11:40:25;;;;;;;3.58;3.28;;;;;;;33.30;28.83;100659.16;5060476;28;20465;-90
2022/08/14 11:42:55;;;;;;;3.78;3.28;;;;;;;33.29;26.72;100652.13;5056709;28;20029;-91
2022/08/14 11:45:44;;;;;;;3.90;3.50;;;;;;;33.32;27.55;100643.69;5058285;28;20120;-91
2022/08/14 11:48:31;;;;;;;4.65;3.88;;;;;;;33.38;27.72;100637.63;5056281;28;20028;-89
2022/08/14 11:50:59;;;;;;;4.88;3.88;;;;;;;33.43;29.24;100626.31;5045859;28;20033;-88